createdAt,value
2024-02-05T00:01:40.310Z,10.50
2024-02-05T00:04:43.097Z,10.50
2024-02-05T00:07:45.143Z,10.51
2024-02-05T00:10:47.609Z,10.47
2024-02-05T00:13:49.464Z,10.45
2024-02-05T00:16:51.210Z,10.38
2024-02-05T00:19:53.773Z,10.42
2024-02-05T00:22:56.090Z,10.34
2024-02-05T00:25:57.866Z,10.29
2024-02-05T00:29:00.765Z,10.22
2024-02-05T00:32:02.481Z,10.17
2024-02-05T00:35:04.737Z,10.29
2024-02-05T00:38:07.033Z,10.39
2024-02-05T00:41:09.511Z,10.47
2024-02-05T00:44:11.811Z,10.42
2024-02-05T00:47:13.699Z,10.28
2024-02-05T00:50:15.442Z,10.18
2024-02-05T00:53:17.280Z,10.07
2024-02-05T00:56:19.634Z,10.04
2024-02-05T00:59:21.443Z,10.08
2024-02-05T01:02:24.442Z,10.11
2024-02-05T01:05:26.915Z,10.10
2024-02-05T01:08:28.913Z,10.10
2024-02-05T01:11:30.683Z,10.04
2024-02-05T01:14:33.952Z,10.04
2024-02-05T01:17:35.780Z,9.96
2024-02-05T01:20:37.550Z,9.98
2024-02-05T01:23:39.456Z,10.01
2024-02-05T01:26:41.212Z,10.01
2024-02-05T01:29:43.655Z,10.04
2024-02-05T01:32:45.536Z,9.95
2024-02-05T01:35:47.287Z,9.93
2024-02-05T01:38:49.790Z,9.93
2024-02-05T01:41:51.655Z,9.84
2024-02-05T01:44:54.143Z,9.87
2024-02-05T01:47:56.231Z,9.84
2024-02-05T01:50:58.711Z,9.86
2024-02-05T01:54:00.553Z,9.81
2024-02-05T01:57:07.893Z,9.85
2024-02-05T02:00:15.855Z,9.84
2024-02-05T02:03:18.255Z,9.79
2024-02-05T02:06:21.819Z,9.78
2024-02-05T02:09:24.736Z,9.77
2024-02-05T02:12:26.936Z,9.72
2024-02-05T02:15:28.945Z,9.71
2024-02-05T02:18:34.237Z,9.66
2024-02-05T02:21:36.215Z,9.60
2024-02-05T02:24:38.094Z,9.53
2024-02-05T02:27:42.442Z,9.58
2024-02-05T02:30:45.006Z,9.63
2024-02-05T02:33:57.399Z,9.62
2024-02-05T02:37:06.804Z,9.58
2024-02-05T02:40:15.793Z,9.57
2024-02-05T02:43:19.440Z,9.60
2024-02-05T02:46:23.048Z,9.55
2024-02-05T02:49:24.957Z,9.56
2024-02-05T02:52:26.909Z,9.51
2024-02-05T02:55:28.993Z,9.47
2024-02-05T02:58:30.821Z,9.44
2024-02-05T03:01:32.713Z,9.43
2024-02-05T03:04:34.566Z,9.43
2024-02-05T03:07:36.499Z,9.39
2024-02-05T03:10:38.338Z,9.35
2024-02-05T03:13:40.035Z,9.38
2024-02-05T03:16:41.765Z,9.33
2024-02-05T03:19:43.612Z,9.32
2024-02-05T03:22:52.957Z,9.34
2024-02-05T03:26:00.312Z,9.38
2024-02-05T03:29:02.081Z,9.32
2024-02-05T03:32:04.894Z,9.34
2024-02-05T03:35:08.608Z,9.36
2024-02-05T03:38:10.461Z,9.36
2024-02-05T03:41:12.248Z,9.33
2024-02-05T03:44:14.028Z,9.26
2024-02-05T03:47:15.760Z,9.21
2024-02-05T03:50:18.554Z,9.24
2024-02-05T03:53:20.576Z,9.23
2024-02-05T03:56:22.382Z,9.18
2024-02-05T03:59:24.110Z,9.04
2024-02-05T04:02:28.210Z,9.00
2024-02-05T04:05:32.756Z,9.01
2024-02-05T04:08:35.007Z,8.98
2024-02-05T04:11:40.075Z,8.99
2024-02-05T04:14:41.841Z,8.94
2024-02-05T04:17:43.824Z,8.98
2024-02-05T04:20:45.614Z,8.93
2024-02-05T04:23:47.380Z,8.99
2024-02-05T04:26:49.106Z,8.98
2024-02-05T04:29:51.004Z,8.91
2024-02-05T04:32:52.781Z,8.86
2024-02-05T04:35:55.081Z,8.90
2024-02-05T04:38:56.850Z,8.89
2024-02-05T04:41:58.676Z,8.91
2024-02-05T04:45:00.484Z,8.99
2024-02-05T04:48:02.304Z,9.00
2024-02-05T04:51:10.966Z,9.08
2024-02-05T04:54:12.835Z,9.08
2024-02-05T04:57:14.573Z,9.17
2024-02-05T05:00:17.356Z,9.09
2024-02-05T05:03:19.115Z,9.13
2024-02-05T05:06:20.926Z,9.15
2024-02-05T05:09:23.328Z,9.17
2024-02-05T05:12:25.217Z,9.17
2024-02-05T05:15:29.049Z,9.23
2024-02-05T05:18:39.001Z,9.27
2024-02-05T05:21:41.002Z,9.29
2024-02-05T05:24:42.877Z,9.27
2024-02-05T05:27:44.744Z,9.31
2024-02-05T05:30:46.589Z,9.39
2024-02-05T05:33:48.623Z,9.55
2024-02-05T05:36:50.474Z,9.62
2024-02-05T05:39:52.714Z,9.70
2024-02-05T05:42:56.616Z,9.80
2024-02-05T05:45:59.035Z,9.89
2024-02-05T05:49:00.890Z,9.81
2024-02-05T05:52:02.767Z,9.83
2024-02-05T05:55:04.984Z,9.90
2024-02-05T05:58:12.788Z,9.89
2024-02-05T06:01:14.766Z,9.95
2024-02-05T06:04:16.727Z,9.99
2024-02-05T06:07:19.488Z,9.98
2024-02-05T06:10:21.944Z,9.96
2024-02-05T06:13:24.012Z,10.01
2024-02-05T06:16:25.942Z,10.02
2024-02-05T06:19:27.899Z,10.05
2024-02-05T06:22:29.741Z,10.04
2024-02-05T06:25:31.558Z,10.09
2024-02-05T06:28:33.518Z,10.02
2024-02-05T06:31:35.366Z,9.93
2024-02-05T06:34:37.295Z,10.03
2024-02-05T06:37:39.248Z,9.99
2024-02-05T06:40:41.110Z,10.06
2024-02-05T06:43:43.074Z,10.11
2024-02-05T06:46:45.969Z,10.09
2024-02-05T06:49:47.889Z,10.12
2024-02-05T06:52:50.216Z,10.14
2024-02-05T06:55:52.054Z,10.15
2024-02-05T06:58:53.883Z,10.12
2024-02-05T07:02:20.629Z,10.07
2024-02-05T07:05:24.372Z,9.99
2024-02-05T07:08:26.435Z,9.98
2024-02-05T07:11:28.403Z,10.01
2024-02-05T07:14:30.232Z,10.01
2024-02-05T07:17:34.142Z,10.01
2024-02-05T07:20:35.995Z,10.02
2024-02-05T07:23:39.127Z,9.92
2024-02-05T07:26:41.115Z,10.03
2024-02-05T07:29:43.650Z,9.99
2024-02-05T07:32:45.991Z,9.89
2024-02-05T07:35:48.165Z,9.90
2024-02-05T07:38:50.292Z,9.77
2024-02-05T07:41:52.122Z,9.73
2024-02-05T07:44:53.995Z,9.73
2024-02-05T07:47:55.819Z,9.72
2024-02-05T07:50:57.739Z,9.69
2024-02-05T07:53:59.710Z,9.68
2024-02-05T07:57:04.208Z,9.62
2024-02-05T08:00:06.773Z,9.61
2024-02-05T08:03:08.715Z,9.66
2024-02-05T08:06:19.637Z,9.71
2024-02-05T08:09:21.529Z,9.79
2024-02-05T08:12:23.631Z,9.75
2024-02-05T08:15:25.493Z,9.96
2024-02-05T08:18:27.231Z,9.93
2024-02-05T08:21:29.081Z,10.04
2024-02-05T08:24:30.933Z,10.10
2024-02-05T08:27:32.725Z,10.26
2024-02-05T08:30:34.555Z,10.35
2024-02-05T08:33:36.440Z,10.51
2024-02-05T08:36:38.294Z,10.47
2024-02-05T08:39:40.133Z,10.56
2024-02-05T08:42:46.793Z,10.60
2024-02-05T08:45:51.555Z,10.70
2024-02-05T08:48:53.679Z,10.69
2024-02-05T08:51:56.109Z,10.81
2024-02-05T08:54:58.044Z,10.86
2024-02-05T08:58:00.645Z,10.90
2024-02-05T09:01:02.600Z,10.91
2024-02-05T09:04:04.509Z,10.90
2024-02-05T09:07:06.464Z,10.88
2024-02-05T09:10:08.847Z,10.94
2024-02-05T09:13:10.782Z,10.98
2024-02-05T09:16:17.480Z,10.97
2024-02-05T09:19:20.232Z,11.11
2024-02-05T09:22:22.197Z,11.14
2024-02-05T09:25:24.134Z,11.11
2024-02-05T09:28:25.989Z,11.07
2024-02-05T09:31:27.849Z,11.16
2024-02-05T09:34:29.735Z,11.29
2024-02-05T09:37:31.642Z,11.41
2024-02-05T09:40:33.840Z,11.50
2024-02-05T09:43:43.362Z,11.55
2024-02-05T09:46:53.573Z,11.58
2024-02-05T09:49:58.137Z,11.63
2024-02-05T09:53:02.528Z,11.80
2024-02-05T09:56:07.263Z,11.80
2024-02-05T09:59:10.775Z,11.97
2024-02-05T10:02:16.786Z,11.99
2024-02-05T10:05:21.790Z,12.54
2024-02-05T10:08:24.486Z,13.33
2024-02-05T10:11:28.444Z,13.73
2024-02-05T10:14:30.445Z,14.12
2024-02-05T10:17:32.325Z,14.32
2024-02-05T10:20:34.701Z,14.41
2024-02-05T10:23:36.492Z,15.22
2024-02-05T10:26:38.332Z,15.49
2024-02-05T10:29:40.088Z,15.50
2024-02-05T10:32:42.037Z,15.20
2024-02-05T10:35:44.614Z,15.57
2024-02-05T10:38:47.253Z,16.16
2024-02-05T10:41:49.202Z,15.76
2024-02-05T10:44:51.891Z,15.78
2024-02-05T10:47:53.806Z,15.67
2024-02-05T10:50:55.848Z,15.33
2024-02-05T10:53:58.840Z,15.45
2024-02-05T10:57:01.362Z,15.58
2024-02-05T11:00:03.452Z,15.50
2024-02-05T11:03:12.570Z,15.65
2024-02-05T11:06:18.123Z,15.56
2024-02-05T11:09:24.563Z,15.50
2024-02-05T11:12:30.536Z,15.50
2024-02-05T11:15:38.670Z,15.50
2024-02-05T11:18:47.195Z,15.84
2024-02-05T11:21:56.403Z,16.20
2024-02-05T11:24:59.107Z,16.48
2024-02-05T11:28:02.620Z,17.02
2024-02-05T11:31:09.526Z,17.67
2024-02-05T11:34:12.586Z,17.73
2024-02-05T11:37:18.253Z,18.08
2024-02-05T11:40:23.051Z,18.55
2024-02-05T11:43:26.912Z,18.72
2024-02-05T11:46:29.029Z,18.65
2024-02-05T11:49:34.910Z,17.61
2024-02-05T11:52:44.499Z,17.01
2024-02-05T11:55:46.439Z,16.70
2024-02-05T11:58:52.477Z,16.33
2024-02-05T12:01:58.228Z,16.05
2024-02-05T12:05:01.860Z,15.96
2024-02-05T12:08:05.083Z,15.90
2024-02-05T12:11:07.661Z,15.57
2024-02-05T12:14:12.175Z,15.84
2024-02-05T12:17:14.797Z,15.90
2024-02-05T12:20:20.715Z,16.09
2024-02-05T12:23:22.666Z,16.33
2024-02-05T12:26:27.862Z,16.44
2024-02-05T12:29:30.345Z,16.40
2024-02-05T12:32:38.457Z,16.23
2024-02-05T12:36:08.981Z,16.13
2024-02-05T12:39:10.956Z,16.27
2024-02-05T12:42:13.922Z,16.48
2024-02-05T12:45:17.757Z,16.82
2024-02-05T12:48:23.922Z,16.85
2024-02-05T12:51:26.079Z,16.94
2024-02-05T12:54:27.903Z,17.03
2024-02-05T12:57:29.841Z,16.66
2024-02-05T13:00:31.681Z,16.64
2024-02-05T13:03:36.086Z,16.57
2024-02-05T13:06:38.082Z,16.75
2024-02-05T13:09:40.903Z,16.65
2024-02-05T13:12:43.168Z,16.83
2024-02-05T13:15:46.351Z,17.00
2024-02-05T13:18:48.288Z,17.06
2024-02-05T13:21:50.320Z,17.18
2024-02-05T13:24:52.135Z,17.27
2024-02-05T13:27:54.133Z,17.15
2024-02-05T13:30:56.011Z,17.10
2024-02-05T13:33:57.951Z,17.43
2024-02-05T13:37:00.976Z,17.76
2024-02-05T13:40:03.170Z,17.86
2024-02-05T13:43:06.084Z,17.73
2024-02-05T13:46:08.051Z,17.81
2024-02-05T13:49:10.073Z,18.01
2024-02-05T13:52:12.318Z,18.14
2024-02-05T13:55:16.191Z,18.30
2024-02-05T13:58:18.418Z,18.60
2024-02-05T14:01:21.031Z,18.83
2024-02-05T14:04:23.194Z,19.62
2024-02-05T14:07:25.229Z,20.78
2024-02-05T14:10:27.159Z,21.22
2024-02-05T14:13:28.999Z,21.86
2024-02-05T14:16:31.172Z,21.40
2024-02-05T14:19:37.245Z,20.11
2024-02-05T14:22:39.110Z,19.15
2024-02-05T14:25:40.989Z,18.35
2024-02-05T14:28:43.116Z,17.84
2024-02-05T14:31:45.233Z,17.40
2024-02-05T14:34:48.362Z,17.10
2024-02-05T14:37:52.809Z,16.64
2024-02-05T14:40:54.641Z,16.42
2024-02-05T14:43:56.412Z,16.11
2024-02-05T14:46:58.231Z,15.82
2024-02-05T14:50:00.287Z,15.70
2024-02-05T14:53:02.560Z,15.47
2024-02-05T14:56:05.173Z,15.42
2024-02-05T14:59:07.697Z,15.40
2024-02-05T15:02:10.064Z,15.25
2024-02-05T15:05:13.544Z,15.16
2024-02-05T15:08:15.872Z,15.04
2024-02-05T15:11:17.680Z,14.95
2024-02-05T15:14:19.455Z,14.87
2024-02-05T15:17:21.228Z,14.83
2024-02-05T15:20:23.318Z,14.66
2024-02-05T15:23:25.205Z,14.49
2024-02-05T15:26:27.005Z,14.31
2024-02-05T15:29:29.189Z,14.14
2024-02-05T15:32:31.430Z,14.05
2024-02-05T15:35:33.369Z,13.63
2024-02-05T15:38:35.463Z,13.51
2024-02-05T15:41:37.377Z,13.36
2024-02-05T15:44:39.187Z,13.21
2024-02-05T15:47:41.408Z,13.13
2024-02-05T15:50:43.284Z,13.08
2024-02-05T15:53:46.854Z,12.99
2024-02-05T15:56:48.896Z,13.01
2024-02-05T15:59:50.775Z,12.96
2024-02-05T16:02:52.608Z,12.95
2024-02-05T16:05:55.697Z,12.88
2024-02-05T16:08:57.538Z,12.76
2024-02-05T16:11:59.799Z,12.77
2024-02-05T16:15:01.663Z,12.70
2024-02-05T16:18:04.768Z,12.70
2024-02-05T16:21:06.838Z,12.55
2024-02-05T16:24:09.003Z,12.52
2024-02-05T16:27:11.480Z,12.49
2024-02-05T16:30:13.859Z,12.47
2024-02-05T16:33:16.505Z,12.41
2024-02-05T16:36:18.816Z,12.22
2024-02-05T16:39:21.539Z,12.01
2024-02-05T16:42:27.609Z,11.95
2024-02-05T16:45:29.687Z,11.97
2024-02-05T16:48:31.545Z,11.83
2024-02-05T16:51:33.426Z,11.68
2024-02-05T16:54:35.445Z,11.66
2024-02-05T16:57:37.815Z,11.56
2024-02-05T17:00:39.656Z,11.54
2024-02-05T17:03:41.842Z,11.49
2024-02-05T17:06:44.488Z,11.48
2024-02-05T17:09:47.455Z,11.53
2024-02-05T17:12:49.764Z,11.51
2024-02-05T17:15:51.846Z,11.47
2024-02-05T17:18:53.821Z,11.52
2024-02-05T17:21:57.795Z,11.38
2024-02-05T17:25:00.447Z,11.28
2024-02-05T17:28:02.307Z,11.23
2024-02-05T17:31:04.261Z,11.23
2024-02-05T17:34:06.278Z,11.05
2024-02-05T17:37:08.295Z,10.99
2024-02-05T17:40:10.547Z,10.95
2024-02-05T17:43:12.347Z,10.90
2024-02-05T17:46:14.259Z,10.77
2024-02-05T17:49:16.428Z,10.60
2024-02-05T17:52:18.384Z,10.45
2024-02-05T17:55:21.271Z,10.33
2024-02-05T17:58:23.938Z,10.12
2024-02-05T18:01:25.884Z,9.91
2024-02-05T18:04:27.827Z,9.77
2024-02-05T18:07:29.802Z,9.60
2024-02-05T18:10:31.789Z,9.60
2024-02-05T18:13:33.799Z,9.65
2024-02-05T18:16:37.170Z,9.63
2024-02-05T18:19:39.154Z,9.60
2024-02-05T18:22:41.007Z,9.62
2024-02-05T18:25:42.883Z,9.73
2024-02-05T18:28:44.783Z,9.83
2024-02-05T18:31:51.140Z,9.88
2024-02-05T18:34:53.202Z,10.00
2024-02-05T18:37:55.158Z,9.99
2024-02-05T18:41:00.292Z,10.01
2024-02-05T18:44:02.356Z,9.89
2024-02-05T18:47:04.702Z,9.81
2024-02-05T18:50:07.110Z,9.67
2024-02-05T18:53:08.985Z,9.68
2024-02-05T18:56:12.136Z,9.64
2024-02-05T18:59:14.140Z,9.57
2024-02-05T19:02:16.146Z,9.44
2024-02-05T19:05:18.176Z,9.44
2024-02-05T19:08:20.436Z,9.37
2024-02-05T19:11:22.331Z,9.49
2024-02-05T19:14:24.160Z,9.41
2024-02-05T19:17:26.118Z,9.52
2024-02-05T19:20:29.200Z,9.49
2024-02-05T19:23:31.121Z,9.45
2024-02-05T19:26:32.987Z,9.42
2024-02-05T19:29:34.917Z,9.36
2024-02-05T19:32:36.749Z,9.28
2024-02-05T19:35:38.592Z,9.32
2024-02-05T19:38:40.345Z,9.20
2024-02-05T19:41:42.836Z,9.11
2024-02-05T19:44:44.630Z,9.05
2024-02-05T19:47:47.342Z,8.77
2024-02-05T19:50:49.189Z,8.64
2024-02-05T19:53:50.982Z,8.70
2024-02-05T19:56:52.845Z,8.76
2024-02-05T19:59:54.608Z,8.86
2024-02-05T20:02:56.393Z,8.80
2024-02-05T20:05:58.141Z,8.65
2024-02-05T20:09:04.181Z,8.60
2024-02-05T20:12:09.546Z,8.55
2024-02-05T20:15:13.108Z,8.38
2024-02-05T20:18:16.166Z,8.41
2024-02-05T20:21:19.532Z,8.40
2024-02-05T20:24:21.286Z,8.41
2024-02-05T20:27:23.110Z,8.42
2024-02-05T20:30:24.844Z,8.45
2024-02-05T20:33:26.777Z,8.40
2024-02-05T20:36:28.652Z,8.43
2024-02-05T20:39:30.436Z,8.36
2024-02-05T20:42:32.215Z,8.37
2024-02-05T20:45:34.048Z,8.40
2024-02-05T20:48:36.524Z,8.42
2024-02-05T20:51:38.438Z,8.48
2024-02-05T20:54:40.272Z,8.48
2024-02-05T20:57:42.028Z,8.50
2024-02-05T21:00:47.464Z,8.63
2024-02-05T21:03:49.686Z,8.64
2024-02-05T21:06:51.854Z,8.54
2024-02-05T21:09:53.758Z,8.56
2024-02-05T21:12:55.585Z,8.63
2024-02-05T21:15:57.890Z,8.66
2024-02-05T21:18:59.991Z,8.69
2024-02-05T21:22:01.924Z,8.62
2024-02-05T21:25:04.253Z,8.66
2024-02-05T21:28:06.606Z,8.57
2024-02-05T21:31:08.550Z,8.60
2024-02-05T21:34:11.209Z,8.57
2024-02-05T21:37:13.228Z,8.61
2024-02-05T21:40:15.351Z,8.63
2024-02-05T21:43:17.251Z,8.52
2024-02-05T21:46:19.186Z,8.47
2024-02-05T21:49:21.179Z,8.43
2024-02-05T21:52:24.197Z,8.42
2024-02-05T21:55:26.054Z,8.36
2024-02-05T21:58:27.829Z,8.30
2024-02-05T22:01:29.875Z,8.31
2024-02-05T22:04:31.960Z,8.22
2024-02-05T22:07:34.030Z,8.22
2024-02-05T22:10:36.145Z,8.19
2024-02-05T22:13:37.945Z,8.14
2024-02-05T22:16:39.789Z,8.14
2024-02-05T22:19:42.474Z,8.18
2024-02-05T22:22:44.321Z,8.22
2024-02-05T22:25:46.477Z,8.21
2024-02-05T22:28:48.534Z,8.32
2024-02-05T22:31:51.797Z,8.30
2024-02-05T22:34:57.231Z,8.19
2024-02-05T22:37:59.127Z,8.04
2024-02-05T22:41:00.896Z,7.94
2024-02-05T22:44:02.805Z,7.77
2024-02-05T22:47:04.610Z,7.65
2024-02-05T22:50:07.166Z,7.54
2024-02-05T22:53:09.051Z,7.39
2024-02-05T22:56:10.829Z,7.38
2024-02-05T22:59:12.798Z,7.51
2024-02-05T23:02:14.673Z,7.54
2024-02-05T23:05:17.270Z,7.46
2024-02-05T23:08:19.156Z,7.44
2024-02-05T23:11:20.896Z,7.34
2024-02-05T23:14:24.512Z,7.10
2024-02-05T23:17:26.382Z,7.11
2024-02-05T23:20:28.129Z,7.09
2024-02-05T23:23:29.965Z,7.18
2024-02-05T23:26:31.748Z,7.22
2024-02-05T23:29:33.550Z,7.13
2024-02-05T23:32:36.041Z,7.02
2024-02-05T23:35:37.941Z,6.86
2024-02-05T23:38:39.720Z,6.72
2024-02-05T23:41:41.556Z,6.61
2024-02-05T23:44:43.398Z,6.61
2024-02-05T23:47:45.469Z,6.55
2024-02-05T23:50:47.309Z,6.58
2024-02-05T23:53:49.104Z,6.65
2024-02-05T23:56:51.543Z,6.68
2024-02-05T23:59:53.410Z,6.68
